sensor_id;sensor_type;location;lat;lon;timestamp;P1;durP1;ratioP1;P2;durP2;ratioP2
151;SDS011;68;48.792;9.164;2023-05-16T00:00:44;27.27;;;15.98;;
151;SDS011;68;48.792;9.164;2023-05-16T00:03:12;27.73;;;16.95;;
151;SDS011;68;48.792;9.164;2023-05-16T00:05:39;27.25;;;15.48;;
151;SDS011;68;48.792;9.164;2023-05-16T00:08:06;28.00;;;17.52;;
151;SDS011;68;48.792;9.164;2023-05-16T00:10:32;30.67;;;16.90;;
151;SDS011;68;48.792;9.164;2023-05-16T00:12:59;28.33;;;17.90;;
151;SDS011;68;48.792;9.164;2023-05-16T00:15:26;27.60;;;16.85;;
151;SDS011;68;48.792;9.164;2023-05-16T00:17:55;28.15;;;17.70;;
151;SDS011;68;48.792;9.164;2023-05-16T00:20:23;29.60;;;18.58;;
151;SDS011;68;48.792;9.164;2023-05-16T00:22:50;34.42;;;19.00;;
151;SDS011;68;48.792;9.164;2023-05-16T00:25:17;28.70;;;17.95;;
151;SDS011;68;48.792;9.164;2023-05-16T00:27:44;31.52;;;20.40;;
151;SDS011;68;48.792;9.164;2023-05-16T00:30:11;34.95;;;21.10;;
151;SDS011;68;48.792;9.164;2023-05-16T00:32:38;33.22;;;20.35;;
151;SDS011;68;48.792;9.164;2023-05-16T00:35:07;37.45;;;22.13;;
151;SDS011;68;48.792;9.164;2023-05-16T00:37:35;36.53;;;23.15;;
151;SDS011;68;48.792;9.164;2023-05-16T00:40:02;39.90;;;25.15;;
151;SDS011;68;48.792;9.164;2023-05-16T00:42:30;44.25;;;26.10;;
151;SDS011;68;48.792;9.164;2023-05-16T00:44:56;42.50;;;26.98;;
151;SDS011;68;48.792;9.164;2023-05-16T00:47:23;51.55;;;27.90;;
151;SDS011;68;48.792;9.164;2023-05-16T00:49:50;47.60;;;27.63;;
151;SDS011;68;48.792;9.164;2023-05-16T00:52:20;45.15;;;28.88;;
151;SDS011;68;48.792;9.164;2023-05-16T00:54:47;43.10;;;27.40;;
151;SDS011;68;48.792;9.164;2023-05-16T00:57:14;48.13;;;28.92;;
151;SDS011;68;48.792;9.164;2023-05-16T00:59:41;44.25;;;26.90;;
151;SDS011;68;48.792;9.164;2023-05-16T01:02:10;46.72;;;28.17;;
151;SDS011;68;48.792;9.164;2023-05-16T01:04:37;42.63;;;27.05;;
151;SDS011;68;48.792;9.164;2023-05-16T01:07:04;42.42;;;25.98;;
151;SDS011;68;48.792;9.164;2023-05-16T01:09:32;42.88;;;27.27;;
151;SDS011;68;48.792;9.164;2023-05-16T01:12:01;45.80;;;26.10;;
151;SDS011;68;48.792;9.164;2023-05-16T01:14:37;51.60;;;26.15;;
151;SDS011;68;48.792;9.164;2023-05-16T01:17:11;37.15;;;25.55;;
151;SDS011;68;48.792;9.164;2023-05-16T01:19:51;44.10;;;27.30;;
151;SDS011;68;48.792;9.164;2023-05-16T01:22:29;48.15;;;28.25;;
151;SDS011;68;48.792;9.164;2023-05-16T01:25:10;45.53;;;28.83;;
151;SDS011;68;48.792;9.164;2023-05-16T01:27:48;43.72;;;27.13;;
151;SDS011;68;48.792;9.164;2023-05-16T01:30:16;42.67;;;28.33;;
151;SDS011;68;48.792;9.164;2023-05-16T01:32:44;47.40;;;28.92;;
151;SDS011;68;48.792;9.164;2023-05-16T01:35:12;45.03;;;28.65;;
151;SDS011;68;48.792;9.164;2023-05-16T01:37:44;50.70;;;29.95;;
151;SDS011;68;48.792;9.164;2023-05-16T01:40:20;58.53;;;33.38;;
151;SDS011;68;48.792;9.164;2023-05-16T01:42:54;53.22;;;31.42;;
151;SDS011;68;48.792;9.164;2023-05-16T01:45:25;56.00;;;32.90;;
151;SDS011;68;48.792;9.164;2023-05-16T01:47:57;57.80;;;33.20;;
151;SDS011;68;48.792;9.164;2023-05-16T01:50:34;56.33;;;35.53;;
151;SDS011;68;48.792;9.164;2023-05-16T01:53:06;61.30;;;35.88;;
151;SDS011;68;48.792;9.164;2023-05-16T01:55:38;62.05;;;36.35;;
151;SDS011;68;48.792;9.164;2023-05-16T01:58:10;64.40;;;36.08;;
151;SDS011;68;48.792;9.164;2023-05-16T02:00:38;62.95;;;35.08;;
151;SDS011;68;48.792;9.164;2023-05-16T02:03:05;60.13;;;36.10;;
151;SDS011;68;48.792;9.164;2023-05-16T02:05:32;65.95;;;39.72;;
151;SDS011;68;48.792;9.164;2023-05-16T02:07:59;60.53;;;35.67;;
151;SDS011;68;48.792;9.164;2023-05-16T02:10:26;64.75;;;36.88;;
151;SDS011;68;48.792;9.164;2023-05-16T02:12:53;60.45;;;36.08;;
151;SDS011;68;48.792;9.164;2023-05-16T02:15:21;62.50;;;37.67;;
151;SDS011;68;48.792;9.164;2023-05-16T02:17:48;58.85;;;34.40;;
151;SDS011;68;48.792;9.164;2023-05-16T02:20:15;64.15;;;36.20;;
151;SDS011;68;48.792;9.164;2023-05-16T02:22:42;64.35;;;35.90;;
151;SDS011;68;48.792;9.164;2023-05-16T02:25:11;61.78;;;36.80;;
151;SDS011;68;48.792;9.164;2023-05-16T02:27:39;63.33;;;37.08;;
151;SDS011;68;48.792;9.164;2023-05-16T02:30:07;62.30;;;36.85;;
151;SDS011;68;48.792;9.164;2023-05-16T02:32:36;63.60;;;37.30;;
151;SDS011;68;48.792;9.164;2023-05-16T02:35:03;66.60;;;37.05;;
151;SDS011;68;48.792;9.164;2023-05-16T02:37:30;68.38;;;39.28;;
151;SDS011;68;48.792;9.164;2023-05-16T02:39:57;67.53;;;38.47;;
151;SDS011;68;48.792;9.164;2023-05-16T02:42:24;70.18;;;39.05;;
151;SDS011;68;48.792;9.164;2023-05-16T02:44:52;68.78;;;38.53;;
151;SDS011;68;48.792;9.164;2023-05-16T02:47:19;67.80;;;37.63;;
151;SDS011;68;48.792;9.164;2023-05-16T02:49:47;66.80;;;36.83;;
151;SDS011;68;48.792;9.164;2023-05-16T02:52:14;67.10;;;40.28;;
151;SDS011;68;48.792;9.164;2023-05-16T02:54:40;72.30;;;41.08;;
151;SDS011;68;48.792;9.164;2023-05-16T02:57:07;73.18;;;42.67;;
151;SDS011;68;48.792;9.164;2023-05-16T02:59:34;66.10;;;38.83;;
151;SDS011;68;48.792;9.164;2023-05-16T03:02:01;68.97;;;39.22;;
151;SDS011;68;48.792;9.164;2023-05-16T03:04:28;66.70;;;38.85;;
151;SDS011;68;48.792;9.164;2023-05-16T03:06:56;68.63;;;38.58;;
151;SDS011;68;48.792;9.164;2023-05-16T03:09:23;75.65;;;38.97;;
151;SDS011;68;48.792;9.164;2023-05-16T03:11:50;69.80;;;38.53;;
151;SDS011;68;48.792;9.164;2023-05-16T03:14:16;78.25;;;42.50;;
151;SDS011;68;48.792;9.164;2023-05-16T03:16:43;71.90;;;40.10;;
151;SDS011;68;48.792;9.164;2023-05-16T03:19:10;82.50;;;41.95;;
151;SDS011;68;48.792;9.164;2023-05-16T03:21:38;80.05;;;40.90;;
151;SDS011;68;48.792;9.164;2023-05-16T03:24:06;83.28;;;43.97;;
151;SDS011;68;48.792;9.164;2023-05-16T03:26:33;82.00;;;43.35;;
151;SDS011;68;48.792;9.164;2023-05-16T03:29:00;75.82;;;42.03;;
151;SDS011;68;48.792;9.164;2023-05-16T03:31:27;90.55;;;45.60;;
151;SDS011;68;48.792;9.164;2023-05-16T03:33:54;88.82;;;44.33;;
151;SDS011;68;48.792;9.164;2023-05-16T03:36:20;77.22;;;41.22;;
151;SDS011;68;48.792;9.164;2023-05-16T03:38:48;87.72;;;43.90;;
151;SDS011;68;48.792;9.164;2023-05-16T03:41:16;84.78;;;44.13;;
151;SDS011;68;48.792;9.164;2023-05-16T03:43:43;88.25;;;45.50;;
151;SDS011;68;48.792;9.164;2023-05-16T03:46:11;85.75;;;42.55;;
151;SDS011;68;48.792;9.164;2023-05-16T03:48:37;86.40;;;45.08;;
151;SDS011;68;48.792;9.164;2023-05-16T03:51:04;86.78;;;45.63;;
151;SDS011;68;48.792;9.164;2023-05-16T03:53:31;93.38;;;46.67;;
151;SDS011;68;48.792;9.164;2023-05-16T03:55:58;89.97;;;45.22;;
151;SDS011;68;48.792;9.164;2023-05-16T03:58:26;90.05;;;45.20;;
151;SDS011;68;48.792;9.164;2023-05-16T04:00:53;98.05;;;45.70;;
151;SDS011;68;48.792;9.164;2023-05-16T04:03:19;88.05;;;46.25;;
151;SDS011;68;48.792;9.164;2023-05-16T04:05:52;98.85;;;47.10;;
151;SDS011;68;48.792;9.164;2023-05-16T04:08:19;96.30;;;47.13;;
151;SDS011;68;48.792;9.164;2023-05-16T04:10:45;98.63;;;46.95;;
151;SDS011;68;48.792;9.164;2023-05-16T04:13:13;92.43;;;47.80;;
151;SDS011;68;48.792;9.164;2023-05-16T04:15:41;99.88;;;48.03;;
151;SDS011;68;48.792;9.164;2023-05-16T04:18:08;99.60;;;47.35;;
151;SDS011;68;48.792;9.164;2023-05-16T04:20:35;100.75;;;48.72;;
151;SDS011;68;48.792;9.164;2023-05-16T04:23:02;94.40;;;48.20;;
151;SDS011;68;48.792;9.164;2023-05-16T04:25:28;97.65;;;47.67;;
151;SDS011;68;48.792;9.164;2023-05-16T04:27:56;99.10;;;49.10;;
151;SDS011;68;48.792;9.164;2023-05-16T04:30:22;100.43;;;49.65;;
151;SDS011;68;48.792;9.164;2023-05-16T04:32:51;98.88;;;46.45;;
151;SDS011;68;48.792;9.164;2023-05-16T04:35:18;99.32;;;46.50;;
151;SDS011;68;48.792;9.164;2023-05-16T04:37:45;103.85;;;47.60;;
151;SDS011;68;48.792;9.164;2023-05-16T04:40:12;106.10;;;49.03;;
151;SDS011;68;48.792;9.164;2023-05-16T04:42:39;108.95;;;51.15;;
151;SDS011;68;48.792;9.164;2023-05-16T04:45:06;114.50;;;49.83;;
151;SDS011;68;48.792;9.164;2023-05-16T04:47:36;106.47;;;48.75;;
151;SDS011;68;48.792;9.164;2023-05-16T04:50:04;109.32;;;50.25;;
151;SDS011;68;48.792;9.164;2023-05-16T04:52:33;110.75;;;51.80;;
151;SDS011;68;48.792;9.164;2023-05-16T04:55:00;103.72;;;50.47;;
151;SDS011;68;48.792;9.164;2023-05-16T04:57:27;115.07;;;49.10;;
151;SDS011;68;48.792;9.164;2023-05-16T04:59:54;104.03;;;48.35;;
151;SDS011;68;48.792;9.164;2023-05-16T05:02:21;100.47;;;48.03;;
151;SDS011;68;48.792;9.164;2023-05-16T05:04:48;117.43;;;52.10;;
151;SDS011;68;48.792;9.164;2023-05-16T05:07:16;106.75;;;49.10;;
151;SDS011;68;48.792;9.164;2023-05-16T05:09:43;99.25;;;47.20;;
151;SDS011;68;48.792;9.164;2023-05-16T05:12:10;108.70;;;49.88;;
151;SDS011;68;48.792;9.164;2023-05-16T05:14:36;107.38;;;47.78;;
151;SDS011;68;48.792;9.164;2023-05-16T05:17:03;102.55;;;48.80;;
151;SDS011;68;48.792;9.164;2023-05-16T05:19:30;96.40;;;47.60;;
151;SDS011;68;48.792;9.164;2023-05-16T05:21:57;96.80;;;48.67;;
151;SDS011;68;48.792;9.164;2023-05-16T05:24:25;99.10;;;48.63;;
151;SDS011;68;48.792;9.164;2023-05-16T05:26:52;92.93;;;46.67;;
151;SDS011;68;48.792;9.164;2023-05-16T05:29:18;101.38;;;48.53;;
151;SDS011;68;48.792;9.164;2023-05-16T05:31:46;106.65;;;48.97;;
151;SDS011;68;48.792;9.164;2023-05-16T05:34:12;98.68;;;45.78;;
151;SDS011;68;48.792;9.164;2023-05-16T05:36:39;95.18;;;46.60;;
151;SDS011;68;48.792;9.164;2023-05-16T05:39:06;96.57;;;45.70;;
151;SDS011;68;48.792;9.164;2023-05-16T05:41:35;97.65;;;47.63;;
151;SDS011;68;48.792;9.164;2023-05-16T05:44:02;94.68;;;47.30;;
151;SDS011;68;48.792;9.164;2023-05-16T05:46:29;96.07;;;46.83;;
151;SDS011;68;48.792;9.164;2023-05-16T05:48:56;107.03;;;48.42;;
151;SDS011;68;48.792;9.164;2023-05-16T05:51:23;101.72;;;50.90;;
151;SDS011;68;48.792;9.164;2023-05-16T05:53:50;98.93;;;46.33;;
151;SDS011;68;48.792;9.164;2023-05-16T05:56:17;91.82;;;45.67;;
151;SDS011;68;48.792;9.164;2023-05-16T05:58:46;97.28;;;48.05;;
151;SDS011;68;48.792;9.164;2023-05-16T06:01:13;112.05;;;48.47;;
151;SDS011;68;48.792;9.164;2023-05-16T06:03:40;93.55;;;48.30;;
151;SDS011;68;48.792;9.164;2023-05-16T06:06:07;90.95;;;44.33;;
151;SDS011;68;48.792;9.164;2023-05-16T06:08:34;94.00;;;48.53;;
151;SDS011;68;48.792;9.164;2023-05-16T06:11:00;97.00;;;45.55;;
151;SDS011;68;48.792;9.164;2023-05-16T06:13:27;87.55;;;45.03;;
151;SDS011;68;48.792;9.164;2023-05-16T06:15:56;82.50;;;43.72;;
151;SDS011;68;48.792;9.164;2023-05-16T06:18:23;85.07;;;45.00;;
151;SDS011;68;48.792;9.164;2023-05-16T06:20:51;94.13;;;43.80;;
151;SDS011;68;48.792;9.164;2023-05-16T06:23:18;83.40;;;43.05;;
151;SDS011;68;48.792;9.164;2023-05-16T06:25:45;87.18;;;45.55;;
151;SDS011;68;48.792;9.164;2023-05-16T06:28:12;82.60;;;43.30;;
151;SDS011;68;48.792;9.164;2023-05-16T06:30:39;80.43;;;41.65;;
151;SDS011;68;48.792;9.164;2023-05-16T06:33:07;79.32;;;42.60;;
151;SDS011;68;48.792;9.164;2023-05-16T06:35:34;81.25;;;43.13;;
151;SDS011;68;48.792;9.164;2023-05-16T06:38:01;79.75;;;44.85;;
151;SDS011;68;48.792;9.164;2023-05-16T06:40:27;83.25;;;42.55;;
151;SDS011;68;48.792;9.164;2023-05-16T06:42:54;85.05;;;42.97;;
151;SDS011;68;48.792;9.164;2023-05-16T06:45:22;82.47;;;42.30;;
151;SDS011;68;48.792;9.164;2023-05-16T06:47:49;74.43;;;41.10;;
151;SDS011;68;48.792;9.164;2023-05-16T06:50:17;76.28;;;40.97;;
151;SDS011;68;48.792;9.164;2023-05-16T06:52:44;73.60;;;40.35;;
151;SDS011;68;48.792;9.164;2023-05-16T06:55:10;74.93;;;42.45;;
151;SDS011;68;48.792;9.164;2023-05-16T06:57:37;72.90;;;39.28;;
151;SDS011;68;48.792;9.164;2023-05-16T07:00:05;76.82;;;39.28;;
151;SDS011;68;48.792;9.164;2023-05-16T07:02:33;71.97;;;40.70;;
151;SDS011;68;48.792;9.164;2023-05-16T07:05:00;73.60;;;38.33;;
151;SDS011;68;48.792;9.164;2023-05-16T07:07:28;68.78;;;37.05;;
151;SDS011;68;48.792;9.164;2023-05-16T07:09:55;73.05;;;36.75;;
151;SDS011;68;48.792;9.164;2023-05-16T07:12:21;65.88;;;37.20;;
151;SDS011;68;48.792;9.164;2023-05-16T07:14:48;71.82;;;36.33;;
151;SDS011;68;48.792;9.164;2023-05-16T07:17:15;75.60;;;34.65;;
151;SDS011;68;48.792;9.164;2023-05-16T07:19:43;69.72;;;34.53;;
151;SDS011;68;48.792;9.164;2023-05-16T07:22:10;57.78;;;34.25;;
151;SDS011;68;48.792;9.164;2023-05-16T07:24:38;61.92;;;32.90;;
151;SDS011;68;48.792;9.164;2023-05-16T07:27:05;54.33;;;31.25;;
151;SDS011;68;48.792;9.164;2023-05-16T07:29:32;52.08;;;30.23;;
151;SDS011;68;48.792;9.164;2023-05-16T07:31:59;35.88;;;19.73;;
151;SDS011;68;48.792;9.164;2023-05-16T07:34:26;41.17;;;24.73;;
151;SDS011;68;48.792;9.164;2023-05-16T07:36:53;41.70;;;24.83;;
151;SDS011;68;48.792;9.164;2023-05-16T07:39:20;39.58;;;21.70;;
151;SDS011;68;48.792;9.164;2023-05-16T07:41:48;38.05;;;23.10;;
151;SDS011;68;48.792;9.164;2023-05-16T07:44:14;39.22;;;22.63;;
151;SDS011;68;48.792;9.164;2023-05-16T07:46:41;29.98;;;19.30;;
151;SDS011;68;48.792;9.164;2023-05-16T07:49:09;33.47;;;20.58;;
151;SDS011;68;48.792;9.164;2023-05-16T07:51:36;30.00;;;18.40;;
151;SDS011;68;48.792;9.164;2023-05-16T07:54:02;29.30;;;17.90;;
151;SDS011;68;48.792;9.164;2023-05-16T07:56:29;30.52;;;19.58;;
151;SDS011;68;48.792;9.164;2023-05-16T07:58:58;30.52;;;19.35;;
151;SDS011;68;48.792;9.164;2023-05-16T08:01:25;28.45;;;18.15;;
151;SDS011;68;48.792;9.164;2023-05-16T08:03:52;28.90;;;18.58;;
151;SDS011;68;48.792;9.164;2023-05-16T08:06:18;29.27;;;17.75;;
151;SDS011;68;48.792;9.164;2023-05-16T08:08:45;30.85;;;18.48;;
151;SDS011;68;48.792;9.164;2023-05-16T08:11:12;30.25;;;19.45;;
151;SDS011;68;48.792;9.164;2023-05-16T08:13:39;31.15;;;19.17;;
151;SDS011;68;48.792;9.164;2023-05-16T08:16:07;29.60;;;18.98;;
151;SDS011;68;48.792;9.164;2023-05-16T08:18:34;32.47;;;21.38;;
151;SDS011;68;48.792;9.164;2023-05-16T08:21:00;32.58;;;20.75;;
151;SDS011;68;48.792;9.164;2023-05-16T08:23:27;35.67;;;20.42;;
151;SDS011;68;48.792;9.164;2023-05-16T08:25:54;33.92;;;21.92;;
151;SDS011;68;48.792;9.164;2023-05-16T08:28:22;34.63;;;21.65;;
151;SDS011;68;48.792;9.164;2023-05-16T08:30:49;35.88;;;23.52;;
151;SDS011;68;48.792;9.164;2023-05-16T08:33:17;34.15;;;22.65;;
151;SDS011;68;48.792;9.164;2023-05-16T08:35:44;39.10;;;23.08;;
151;SDS011;68;48.792;9.164;2023-05-16T08:38:12;37.85;;;22.55;;
151;SDS011;68;48.792;9.164;2023-05-16T08:40:39;35.83;;;23.65;;
151;SDS011;68;48.792;9.164;2023-05-16T08:43:07;37.33;;;23.98;;
151;SDS011;68;48.792;9.164;2023-05-16T08:45:34;38.75;;;24.08;;
151;SDS011;68;48.792;9.164;2023-05-16T08:48:01;38.60;;;23.30;;
151;SDS011;68;48.792;9.164;2023-05-16T08:50:31;40.95;;;24.33;;
151;SDS011;68;48.792;9.164;2023-05-16T08:52:58;42.47;;;25.02;;
151;SDS011;68;48.792;9.164;2023-05-16T08:55:31;38.95;;;25.15;;
151;SDS011;68;48.792;9.164;2023-05-16T08:57:58;37.00;;;23.40;;
151;SDS011;68;48.792;9.164;2023-05-16T09:00:26;33.50;;;18.55;;
151;SDS011;68;48.792;9.164;2023-05-16T09:02:53;42.97;;;26.50;;
151;SDS011;68;48.792;9.164;2023-05-16T09:05:20;39.45;;;25.27;;
151;SDS011;68;48.792;9.164;2023-05-16T09:07:49;41.13;;;25.67;;
151;SDS011;68;48.792;9.164;2023-05-16T09:10:16;41.13;;;25.00;;
151;SDS011;68;48.792;9.164;2023-05-16T09:12:43;42.97;;;26.50;;
151;SDS011;68;48.792;9.164;2023-05-16T09:15:10;46.03;;;27.00;;
151;SDS011;68;48.792;9.164;2023-05-16T09:17:37;45.80;;;26.02;;
151;SDS011;68;48.792;9.164;2023-05-16T09:20:08;44.58;;;26.85;;
151;SDS011;68;48.792;9.164;2023-05-16T09:22:36;48.67;;;30.27;;
151;SDS011;68;48.792;9.164;2023-05-16T09:25:06;52.38;;;28.85;;
151;SDS011;68;48.792;9.164;2023-05-16T09:27:33;47.05;;;27.58;;
151;SDS011;68;48.792;9.164;2023-05-16T09:30:00;46.40;;;28.20;;
151;SDS011;68;48.792;9.164;2023-05-16T09:32:27;46.42;;;27.60;;
151;SDS011;68;48.792;9.164;2023-05-16T09:34:56;49.58;;;28.42;;
151;SDS011;68;48.792;9.164;2023-05-16T09:37:23;52.10;;;28.25;;
151;SDS011;68;48.792;9.164;2023-05-16T09:39:51;48.72;;;28.00;;
151;SDS011;68;48.792;9.164;2023-05-16T09:42:20;48.30;;;28.90;;
151;SDS011;68;48.792;9.164;2023-05-16T09:44:48;44.05;;;25.55;;
151;SDS011;68;48.792;9.164;2023-05-16T09:47:15;59.35;;;29.33;;
151;SDS011;68;48.792;9.164;2023-05-16T09:49:43;54.15;;;28.38;;
151;SDS011;68;48.792;9.164;2023-05-16T09:52:10;52.15;;;28.05;;
151;SDS011;68;48.792;9.164;2023-05-16T09:54:38;48.00;;;28.02;;
151;SDS011;68;48.792;9.164;2023-05-16T09:57:05;48.15;;;26.08;;
151;SDS011;68;48.792;9.164;2023-05-16T09:59:35;43.38;;;26.17;;
151;SDS011;68;48.792;9.164;2023-05-16T10:02:03;44.88;;;26.42;;
151;SDS011;68;48.792;9.164;2023-05-16T10:04:32;43.90;;;24.98;;
151;SDS011;68;48.792;9.164;2023-05-16T10:07:01;45.20;;;26.40;;
151;SDS011;68;48.792;9.164;2023-05-16T10:09:30;47.33;;;24.60;;
151;SDS011;68;48.792;9.164;2023-05-16T10:11:58;42.50;;;23.95;;
151;SDS011;68;48.792;9.164;2023-05-16T10:14:28;46.47;;;23.15;;
151;SDS011;68;48.792;9.164;2023-05-16T10:16:57;42.97;;;23.77;;
151;SDS011;68;48.792;9.164;2023-05-16T10:19:25;43.63;;;22.98;;
151;SDS011;68;48.792;9.164;2023-05-16T10:21:53;44.25;;;23.70;;
151;SDS011;68;48.792;9.164;2023-05-16T10:24:25;44.97;;;24.15;;
151;SDS011;68;48.792;9.164;2023-05-16T10:26:56;38.22;;;21.83;;
151;SDS011;68;48.792;9.164;2023-05-16T10:29:23;46.28;;;23.15;;
151;SDS011;68;48.792;9.164;2023-05-16T10:31:51;39.70;;;22.40;;
151;SDS011;68;48.792;9.164;2023-05-16T10:34:20;48.97;;;22.77;;
151;SDS011;68;48.792;9.164;2023-05-16T10:36:47;43.30;;;23.50;;
151;SDS011;68;48.792;9.164;2023-05-16T10:39:14;47.75;;;24.20;;
151;SDS011;68;48.792;9.164;2023-05-16T10:41:42;42.85;;;23.27;;
151;SDS011;68;48.792;9.164;2023-05-16T10:44:12;46.20;;;23.05;;
151;SDS011;68;48.792;9.164;2023-05-16T10:46:41;37.90;;;20.73;;
151;SDS011;68;48.792;9.164;2023-05-16T10:49:22;41.40;;;22.27;;
151;SDS011;68;48.792;9.164;2023-05-16T10:52:04;42.47;;;24.25;;
151;SDS011;68;48.792;9.164;2023-05-16T10:54:33;40.55;;;21.77;;
151;SDS011;68;48.792;9.164;2023-05-16T10:57:03;39.22;;;22.95;;
151;SDS011;68;48.792;9.164;2023-05-16T10:59:38;44.03;;;23.67;;
151;SDS011;68;48.792;9.164;2023-05-16T11:02:25;40.95;;;21.80;;
151;SDS011;68;48.792;9.164;2023-05-16T11:04:55;40.72;;;21.42;;
151;SDS011;68;48.792;9.164;2023-05-16T11:07:24;47.80;;;26.00;;
151;SDS011;68;48.792;9.164;2023-05-16T11:10:03;41.40;;;20.77;;
151;SDS011;68;48.792;9.164;2023-05-16T11:12:36;38.72;;;20.05;;
151;SDS011;68;48.792;9.164;2023-05-16T11:15:19;37.70;;;20.58;;
151;SDS011;68;48.792;9.164;2023-05-16T11:17:48;35.35;;;20.42;;
151;SDS011;68;48.792;9.164;2023-05-16T11:23:16;37.22;;;20.90;;
151;SDS011;68;48.792;9.164;2023-05-16T11:25:51;40.78;;;20.33;;
151;SDS011;68;48.792;9.164;2023-05-16T11:28:20;40.03;;;22.42;;
151;SDS011;68;48.792;9.164;2023-05-16T11:30:49;44.58;;;22.60;;
151;SDS011;68;48.792;9.164;2023-05-16T11:33:19;36.13;;;20.92;;
151;SDS011;68;48.792;9.164;2023-05-16T11:35:59;38.10;;;19.92;;
151;SDS011;68;48.792;9.164;2023-05-16T11:38:30;40.10;;;20.42;;
151;SDS011;68;48.792;9.164;2023-05-16T11:41:01;34.55;;;18.27;;
151;SDS011;68;48.792;9.164;2023-05-16T11:43:35;36.78;;;19.00;;
151;SDS011;68;48.792;9.164;2023-05-16T11:46:03;31.67;;;17.75;;
151;SDS011;68;48.792;9.164;2023-05-16T11:48:29;34.85;;;18.88;;
151;SDS011;68;48.792;9.164;2023-05-16T11:50:56;33.15;;;18.80;;
151;SDS011;68;48.792;9.164;2023-05-16T11:53:24;34.28;;;17.70;;
151;SDS011;68;48.792;9.164;2023-05-16T11:55:53;29.60;;;17.05;;
151;SDS011;68;48.792;9.164;2023-05-16T11:58:20;30.85;;;15.93;;
151;SDS011;68;48.792;9.164;2023-05-16T12:00:47;31.23;;;17.10;;
151;SDS011;68;48.792;9.164;2023-05-16T12:03:16;29.63;;;16.75;;
151;SDS011;68;48.792;9.164;2023-05-16T12:05:48;29.35;;;16.80;;
151;SDS011;68;48.792;9.164;2023-05-16T12:08:17;27.70;;;16.77;;
151;SDS011;68;48.792;9.164;2023-05-16T12:10:46;28.00;;;17.20;;
151;SDS011;68;48.792;9.164;2023-05-16T12:13:14;26.67;;;16.60;;
151;SDS011;68;48.792;9.164;2023-05-16T12:15:41;27.45;;;15.88;;
151;SDS011;68;48.792;9.164;2023-05-16T12:18:08;34.17;;;17.15;;
151;SDS011;68;48.792;9.164;2023-05-16T12:20:36;29.52;;;17.30;;
151;SDS011;68;48.792;9.164;2023-05-16T12:23:04;30.27;;;16.17;;
151;SDS011;68;48.792;9.164;2023-05-16T12:25:35;29.67;;;16.75;;
151;SDS011;68;48.792;9.164;2023-05-16T12:28:07;26.88;;;15.60;;
151;SDS011;68;48.792;9.164;2023-05-16T12:30:34;25.77;;;14.80;;
151;SDS011;68;48.792;9.164;2023-05-16T12:33:01;24.67;;;14.73;;
151;SDS011;68;48.792;9.164;2023-05-16T12:35:33;30.13;;;17.08;;
151;SDS011;68;48.792;9.164;2023-05-16T12:38:02;23.60;;;12.88;;
151;SDS011;68;48.792;9.164;2023-05-16T12:40:30;21.98;;;11.65;;
151;SDS011;68;48.792;9.164;2023-05-16T12:42:56;21.90;;;12.60;;
151;SDS011;68;48.792;9.164;2023-05-16T12:45:25;20.33;;;13.30;;
151;SDS011;68;48.792;9.164;2023-05-16T12:47:53;19.30;;;11.10;;
151;SDS011;68;48.792;9.164;2023-05-16T12:50:19;22.35;;;10.88;;
151;SDS011;68;48.792;9.164;2023-05-16T12:52:47;21.30;;;11.23;;
151;SDS011;68;48.792;9.164;2023-05-16T12:55:15;18.48;;;10.85;;
151;SDS011;68;48.792;9.164;2023-05-16T12:57:42;18.77;;;10.90;;
151;SDS011;68;48.792;9.164;2023-05-16T13:00:11;19.70;;;11.00;;
151;SDS011;68;48.792;9.164;2023-05-16T13:02:41;21.92;;;11.75;;
151;SDS011;68;48.792;9.164;2023-05-16T13:05:07;19.92;;;10.75;;
151;SDS011;68;48.792;9.164;2023-05-16T13:07:35;18.60;;;10.40;;
151;SDS011;68;48.792;9.164;2023-05-16T13:10:04;18.90;;;10.82;;
151;SDS011;68;48.792;9.164;2023-05-16T13:12:34;18.33;;;10.68;;
151;SDS011;68;48.792;9.164;2023-05-16T13:15:01;19.05;;;10.13;;
151;SDS011;68;48.792;9.164;2023-05-16T13:17:28;16.98;;;9.77;;
151;SDS011;68;48.792;9.164;2023-05-16T13:19:56;15.82;;;9.35;;
151;SDS011;68;48.792;9.164;2023-05-16T13:22:23;19.10;;;8.73;;
151;SDS011;68;48.792;9.164;2023-05-16T13:24:50;17.52;;;9.48;;
151;SDS011;68;48.792;9.164;2023-05-16T13:27:17;22.13;;;8.82;;
151;SDS011;68;48.792;9.164;2023-05-16T13:29:43;33.40;;;9.00;;
151;SDS011;68;48.792;9.164;2023-05-16T13:32:10;18.33;;;8.75;;
151;SDS011;68;48.792;9.164;2023-05-16T13:34:37;19.15;;;9.15;;
151;SDS011;68;48.792;9.164;2023-05-16T13:37:05;18.38;;;9.15;;
151;SDS011;68;48.792;9.164;2023-05-16T13:39:32;18.25;;;9.35;;
151;SDS011;68;48.792;9.164;2023-05-16T13:41:58;16.08;;;9.15;;
151;SDS011;68;48.792;9.164;2023-05-16T13:44:27;23.42;;;9.10;;
151;SDS011;68;48.792;9.164;2023-05-16T13:46:54;28.63;;;9.60;;
151;SDS011;68;48.792;9.164;2023-05-16T13:49:21;17.83;;;8.40;;
151;SDS011;68;48.792;9.164;2023-05-16T13:51:48;17.63;;;10.00;;
151;SDS011;68;48.792;9.164;2023-05-16T13:54:17;18.58;;;8.73;;
151;SDS011;68;48.792;9.164;2023-05-16T13:56:44;22.33;;;8.60;;
151;SDS011;68;48.792;9.164;2023-05-16T13:59:11;20.00;;;8.93;;
151;SDS011;68;48.792;9.164;2023-05-16T14:01:37;20.48;;;9.00;;
151;SDS011;68;48.792;9.164;2023-05-16T14:04:04;15.77;;;8.63;;
151;SDS011;68;48.792;9.164;2023-05-16T14:06:31;15.23;;;7.70;;
151;SDS011;68;48.792;9.164;2023-05-16T14:08:58;17.15;;;8.35;;
151;SDS011;68;48.792;9.164;2023-05-16T14:11:26;19.60;;;8.15;;
151;SDS011;68;48.792;9.164;2023-05-16T14:13:53;15.57;;;8.77;;
151;SDS011;68;48.792;9.164;2023-05-16T14:16:19;20.75;;;9.63;;
151;SDS011;68;48.792;9.164;2023-05-16T14:18:46;22.70;;;10.05;;
151;SDS011;68;48.792;9.164;2023-05-16T14:21:13;16.73;;;8.43;;
151;SDS011;68;48.792;9.164;2023-05-16T14:23:40;14.45;;;7.97;;
151;SDS011;68;48.792;9.164;2023-05-16T14:26:07;16.27;;;8.38;;
151;SDS011;68;48.792;9.164;2023-05-16T14:28:35;15.00;;;7.95;;
151;SDS011;68;48.792;9.164;2023-05-16T14:31:02;17.55;;;9.07;;
151;SDS011;68;48.792;9.164;2023-05-16T14:33:28;19.55;;;8.50;;
151;SDS011;68;48.792;9.164;2023-05-16T14:35:56;17.42;;;9.25;;
151;SDS011;68;48.792;9.164;2023-05-16T14:38:23;17.10;;;7.90;;
151;SDS011;68;48.792;9.164;2023-05-16T14:40:50;17.20;;;8.65;;
151;SDS011;68;48.792;9.164;2023-05-16T14:43:17;16.33;;;7.93;;
151;SDS011;68;48.792;9.164;2023-05-16T14:45:45;15.88;;;7.90;;
151;SDS011;68;48.792;9.164;2023-05-16T14:48:11;16.20;;;7.90;;
151;SDS011;68;48.792;9.164;2023-05-16T14:50:38;14.15;;;7.80;;
151;SDS011;68;48.792;9.164;2023-05-16T14:53:05;16.25;;;7.68;;
151;SDS011;68;48.792;9.164;2023-05-16T14:55:32;16.85;;;7.32;;
151;SDS011;68;48.792;9.164;2023-05-16T14:57:59;14.52;;;6.85;;
151;SDS011;68;48.792;9.164;2023-05-16T15:00:26;14.82;;;6.55;;
151;SDS011;68;48.792;9.164;2023-05-16T15:02:54;15.02;;;7.20;;
151;SDS011;68;48.792;9.164;2023-05-16T15:05:21;14.45;;;6.30;;
151;SDS011;68;48.792;9.164;2023-05-16T15:07:49;14.48;;;5.82;;
151;SDS011;68;48.792;9.164;2023-05-16T15:10:16;14.40;;;5.90;;
151;SDS011;68;48.792;9.164;2023-05-16T15:12:43;13.05;;;5.65;;
151;SDS011;68;48.792;9.164;2023-05-16T15:15:10;14.60;;;5.70;;
151;SDS011;68;48.792;9.164;2023-05-16T15:17:37;14.48;;;6.28;;
151;SDS011;68;48.792;9.164;2023-05-16T15:20:06;14.85;;;5.93;;
151;SDS011;68;48.792;9.164;2023-05-16T15:22:34;16.50;;;6.18;;
151;SDS011;68;48.792;9.164;2023-05-16T15:25:01;15.43;;;5.40;;
151;SDS011;68;48.792;9.164;2023-05-16T15:27:29;14.75;;;5.70;;
151;SDS011;68;48.792;9.164;2023-05-16T15:29:56;14.55;;;5.38;;
151;SDS011;68;48.792;9.164;2023-05-16T15:32:23;19.05;;;5.75;;
151;SDS011;68;48.792;9.164;2023-05-16T15:34:50;16.67;;;6.65;;
151;SDS011;68;48.792;9.164;2023-05-16T15:37:18;14.73;;;5.47;;
151;SDS011;68;48.792;9.164;2023-05-16T15:39:45;18.73;;;5.80;;